Time;durP1;ratioP1;P1;durP2;ratioP2;P2;SDS_P1;SDS_P2;PMS_P1;PMS_P2;Temp;Humidity;BMP_temperature;BMP_pressure;BME280_temperature;BME280_humidity;BME280_pressure;Samples;Min_cycle;Max_cycle;Signal;HPM_P1;HPM_P2
2024/03/14 00:02:50;;;;;;;12.37;10.70;;;;;;;;;;4989257;28;20206;-87
2024/03/14 00:05:54;;;;;;;13.10;10.20;;;;;;;;;;4978828;28;20174;-87
2024/03/14 00:09:00;;;;;;;11.27;9.40;;;;;;;;;;4977996;28;20561;-87
2024/03/14 00:12:04;;;;;;;12.30;10.40;;;;;;;;;;4989311;28;20175;-87
2024/03/14 00:15:11;;;;;;;11.63;9.90;;;;;;;;;;4978229;28;20186;-87
2024/03/14 00:18:16;;;;;;;13.40;10.33;;;;;;;;;;4978268;28;20699;-87
2024/03/14 00:21:20;;;;;;;11.83;10.07;;;;;;;;;;4978424;28;20549;-87
2024/03/14 00:24:24;;;;;;;13.63;10.10;;;;;;;;;;5000460;28;20179;-87
2024/03/14 00:27:29;;;;;;;10.67;9.13;;;;;;;;;;4978432;28;20679;-87
2024/03/14 00:30:33;;;;;;;13.40;10.00;;;;;;;;;;4988983;28;20179;-87
2024/03/14 00:33:37;;;;;;;10.97;9.77;;;;;;;;;;4999973;28;20183;-87
2024/03/14 00:36:41;;;;;;;14.30;10.67;;;;;;;;;;4977437;28;20187;-87
2024/03/14 00:39:46;;;;;;;17.30;10.50;;;;;;;;;;4988596;28;20226;-87
2024/03/14 00:42:51;;;;;;;12.87;10.07;;;;;;;;;;5000226;28;20561;-87
2024/03/14 00:45:57;;;;;;;11.50;9.80;;;;;;;;;;5001407;28;20171;-87
2024/03/14 00:49:02;;;;;;;13.17;9.63;;;;;;;;;;4989520;28;20222;-87
2024/03/14 00:52:06;;;;;;;12.87;10.83;;;;;;;;;;5004659;28;20175;-87
2024/03/14 00:55:10;;;;;;;13.60;11.30;;;;;;;;;;4959854;28;20179;-87
2024/03/14 00:58:15;;;;;;;14.50;11.13;;;;;;;;;;4982033;28;20703;-86
2024/03/14 01:01:22;;;;;;;12.73;10.03;;;;;;;;;;4980133;28;20206;-86
2024/03/14 01:04:27;;;;;;;14.07;10.23;;;;;;;;;;5001007;28;20187;-87
2024/03/14 01:07:32;;;;;;;13.30;11.13;;;;;;;;;;4970166;28;20191;-87
2024/03/14 01:10:36;;;;;;;16.50;10.83;;;;;;;;;;4978472;28;20524;-87
2024/03/14 01:13:40;;;;;;;15.73;10.90;;;;;;;;;;4978593;28;20171;-87
2024/03/14 01:16:44;;;;;;;14.53;11.10;;;;;;;;;;4978548;28;20179;-87
2024/03/14 01:19:50;;;;;;;17.63;10.73;;;;;;;;;;4978486;28;20230;-87
2024/03/14 01:22:55;;;;;;;13.50;10.57;;;;;;;;;;4980094;28;20207;-87
2024/03/14 01:26:00;;;;;;;13.50;10.90;;;;;;;;;;4986234;28;20187;-87
2024/03/14 01:29:06;;;;;;;14.20;10.57;;;;;;;;;;5008524;28;20218;-86
2024/03/14 01:32:11;;;;;;;12.53;11.13;;;;;;;;;;4996749;28;20175;-86
2024/03/14 01:35:16;;;;;;;14.47;10.87;;;;;;;;;;4986659;28;20183;-87
2024/03/14 01:38:21;;;;;;;17.80;11.63;;;;;;;;;;4986625;28;20222;-87
2024/03/14 01:41:26;;;;;;;12.90;10.67;;;;;;;;;;4997515;28;20672;-87
2024/03/14 01:44:56;;;;;;;14.17;10.33;;;;;;;;;;4997347;28;20183;-87
2024/03/14 01:48:01;;;;;;;12.23;9.97;;;;;;;;;;4985446;28;20660;-87
2024/03/14 01:51:05;;;;;;;11.93;9.93;;;;;;;;;;4986043;28;20178;-87
2024/03/14 01:54:12;;;;;;;12.07;9.80;;;;;;;;;;4986208;28;20187;-87
2024/03/14 01:57:18;;;;;;;14.33;10.00;;;;;;;;;;4996766;28;20533;-87
2024/03/14 02:00:29;;;;;;;12.77;10.40;;;;;;;;;;4986188;28;20191;-87
2024/03/14 02:03:33;;;;;;;11.70;9.33;;;;;;;;;;4985174;28;20183;-87
2024/03/14 02:06:48;;;;;;;14.77;10.60;;;;;;;;;;4996128;28;20182;-87
2024/03/14 02:09:52;;;;;;;13.53;10.97;;;;;;;;;;4984373;28;20568;-87
2024/03/14 02:12:58;;;;;;;12.03;9.60;;;;;;;;;;4984560;28;20183;-87
2024/03/14 02:16:02;;;;;;;12.40;9.30;;;;;;;;;;4995303;28;20186;-87
2024/03/14 02:19:07;;;;;;;11.80;9.70;;;;;;;;;;4983085;28;20226;-86
2024/03/14 02:22:21;;;;;;;13.80;11.00;;;;;;;;;;4982754;28;20210;-87
2024/03/14 02:25:25;;;;;;;12.57;10.10;;;;;;;;;;4994182;28;20178;-87
2024/03/14 02:28:30;;;;;;;11.07;8.87;;;;;;;;;;5005004;28;20222;-87
2024/03/14 02:31:34;;;;;;;11.33;9.30;;;;;;;;;;4982782;28;20187;-87
2024/03/14 02:34:38;;;;;;;10.50;8.53;;;;;;;;;;4992916;28;20179;-87
2024/03/14 02:37:44;;;;;;;11.63;9.30;;;;;;;;;;4992894;28;20191;-87
2024/03/14 02:40:48;;;;;;;10.30;9.07;;;;;;;;;;4982223;28;20186;-87
2024/03/14 02:43:56;;;;;;;11.70;9.20;;;;;;;;;;4981759;28;20183;-87
2024/03/14 02:47:00;;;;;;;11.47;8.90;;;;;;;;;;4980992;28;20187;-87
2024/03/14 02:50:08;;;;;;;12.07;10.10;;;;;;;;;;4981618;28;20218;-87
2024/03/14 02:53:13;;;;;;;11.73;9.37;;;;;;;;;;4991843;28;20183;-87
2024/03/14 02:56:18;;;;;;;12.47;9.23;;;;;;;;;;4981245;28;20529;-87
2024/03/14 02:59:23;;;;;;;13.60;10.40;;;;;;;;;;4991551;28;20226;-87
2024/03/14 03:02:27;;;;;;;11.50;9.07;;;;;;;;;;4980183;28;20667;-87
2024/03/14 03:05:33;;;;;;;15.90;9.23;;;;;;;;;;4980370;28;20183;-87
2024/03/14 03:08:37;;;;;;;11.83;9.37;;;;;;;;;;4979432;28;20214;-87
2024/03/14 03:11:42;;;;;;;14.00;9.70;;;;;;;;;;4979496;28;20186;-86
2024/03/14 03:14:46;;;;;;;11.83;9.67;;;;;;;;;;4990286;28;20183;-87
2024/03/14 03:17:51;;;;;;;14.27;10.40;;;;;;;;;;4978259;28;20183;-87
2024/03/14 03:20:55;;;;;;;12.27;9.90;;;;;;;;;;4978803;28;20178;-87
2024/03/14 03:23:59;;;;;;;12.23;9.60;;;;;;;;;;4977876;28;20180;-86
2024/03/14 03:27:03;;;;;;;11.03;8.70;;;;;;;;;;5000282;28;20191;-87
2024/03/14 03:30:08;;;;;;;10.80;8.87;;;;;;;;;;4988611;28;20214;-87
2024/03/14 03:33:16;;;;;;;11.23;9.30;;;;;;;;;;4977683;28;20182;-87
2024/03/14 03:36:22;;;;;;;12.13;9.10;;;;;;;;;;4977953;28;20183;-87
2024/03/14 03:39:27;;;;;;;9.97;8.67;;;;;;;;;;4978849;28;20218;-87
2024/03/14 03:42:31;;;;;;;11.47;8.67;;;;;;;;;;4988421;28;20576;-87
2024/03/14 03:45:35;;;;;;;11.00;8.90;;;;;;;;;;4977558;28;20187;-87
2024/03/14 03:48:39;;;;;;;10.53;9.00;;;;;;;;;;4999142;28;20537;-87
2024/03/14 03:51:45;;;;;;;10.67;8.67;;;;;;;;;;4976976;28;20187;-87
2024/03/14 03:54:49;;;;;;;10.80;8.60;;;;;;;;;;4998929;28;20502;-87
2024/03/14 03:57:53;;;;;;;9.80;8.53;;;;;;;;;;4987479;28;20186;-86
2024/03/14 04:01:06;;;;;;;10.83;8.40;;;;;;;;;;4998584;28;20183;-87
2024/03/14 04:04:12;;;;;;;10.23;8.33;;;;;;;;;;4976614;28;20187;-87
2024/03/14 04:07:19;;;;;;;11.23;8.90;;;;;;;;;;4999405;28;20179;-87
2024/03/14 04:10:27;;;;;;;12.87;9.93;;;;;;;;;;4977451;28;20183;-86
2024/03/14 04:13:31;;;;;;;8.67;7.60;;;;;;;;;;4976676;28;20628;-87
2024/03/14 04:16:37;;;;;;;9.70;8.10;;;;;;;;;;4976309;28;20179;-87
2024/03/14 04:19:41;;;;;;;10.23;8.63;;;;;;;;;;4965114;28;20238;-87
2024/03/14 04:22:46;;;;;;;11.17;8.90;;;;;;;;;;4977282;28;20210;-87
2024/03/14 04:25:53;;;;;;;11.53;7.97;;;;;;;;;;4976448;28;20182;-87
2024/03/14 04:28:58;;;;;;;10.50;7.97;;;;;;;;;;4987750;28;20688;-87
2024/03/14 04:32:02;;;;;;;12.10;8.77;;;;;;;;;;4976583;28;20525;-87
2024/03/14 04:35:10;;;;;;;9.27;7.50;;;;;;;;;;4987402;28;20179;-87
2024/03/14 04:38:14;;;;;;;10.80;8.33;;;;;;;;;;4979327;28;20223;-87
2024/03/14 04:41:18;;;;;;;12.10;9.10;;;;;;;;;;4980565;28;20183;-87
2024/03/14 04:44:25;;;;;;;11.47;8.00;;;;;;;;;;4990817;28;20183;-87
2024/03/14 04:47:29;;;;;;;11.33;8.03;;;;;;;;;;4980330;28;20179;-87
2024/03/14 04:50:33;;;;;;;10.37;8.10;;;;;;;;;;4990844;28;20187;-87
2024/03/14 04:53:37;;;;;;;10.10;8.50;;;;;;;;;;4969062;28;20183;-87
2024/03/14 04:56:42;;;;;;;10.60;8.17;;;;;;;;;;4979448;28;20179;-87
2024/03/14 04:59:48;;;;;;;14.50;8.53;;;;;;;;;;4979622;28;20214;-87
2024/03/14 05:02:55;;;;;;;10.27;7.47;;;;;;;;;;4968062;28;20215;-87
2024/03/14 05:05:59;;;;;;;8.17;6.80;;;;;;;;;;4979250;28;20191;-87
2024/03/14 05:09:04;;;;;;;7.97;6.57;;;;;;;;;;4979797;28;20703;-87
2024/03/14 05:12:08;;;;;;;9.60;7.57;;;;;;;;;;4989921;28;20628;-87
2024/03/14 05:15:14;;;;;;;9.70;7.90;;;;;;;;;;4979031;28;20183;-87
2024/03/14 05:18:18;;;;;;;9.90;7.63;;;;;;;;;;4979338;28;20568;-87
2024/03/14 05:21:22;;;;;;;10.13;6.67;;;;;;;;;;4989615;28;20636;-87
2024/03/14 05:24:26;;;;;;;9.63;7.53;;;;;;;;;;4989577;28;20214;-87
2024/03/14 05:27:30;;;;;;;10.27;8.63;;;;;;;;;;4989314;28;20191;-87
2024/03/14 05:30:34;;;;;;;8.10;6.47;;;;;;;;;;4989193;28;20187;-87
2024/03/14 05:33:39;;;;;;;10.50;8.27;;;;;;;;;;4978594;28;20179;-87
2024/03/14 05:36:43;;;;;;;11.20;7.47;;;;;;;;;;4978245;28;20183;-87
2024/03/14 05:39:48;;;;;;;10.60;7.27;;;;;;;;;;4989273;28;20222;-87
2024/03/14 05:42:55;;;;;;;8.83;7.77;;;;;;;;;;4989432;28;20214;-87
2024/03/14 05:46:02;;;;;;;7.93;6.90;;;;;;;;;;5000838;28;20179;-87
2024/03/14 05:49:08;;;;;;;8.27;7.13;;;;;;;;;;4987982;28;20214;-87
2024/03/14 05:52:12;;;;;;;11.50;8.10;;;;;;;;;;4977479;28;20187;-87
2024/03/14 05:55:17;;;;;;;12.07;8.40;;;;;;;;;;4989011;28;20620;-87
2024/03/14 05:58:21;;;;;;;9.87;7.47;;;;;;;;;;4966132;28;20215;-87
2024/03/14 06:01:27;;;;;;;9.97;8.20;;;;;;;;;;4988720;28;20175;-87
2024/03/14 06:04:31;;;;;;;8.93;7.20;;;;;;;;;;4988838;28;20210;-88
2024/03/14 06:07:35;;;;;;;11.97;8.90;;;;;;;;;;4999871;28;20186;-87
2024/03/14 06:10:39;;;;;;;8.40;7.10;;;;;;;;;;4978421;28;20183;-87
2024/03/14 06:13:43;;;;;;;6.73;4.67;;;;;;;;;;4978351;28;20179;-87
2024/03/14 06:16:49;;;;;;;6.63;5.30;;;;;;;;;;4978267;28;20183;-87
2024/03/14 06:19:53;;;;;;;6.83;5.53;;;;;;;;;;4976768;28;20230;-87
2024/03/14 06:22:58;;;;;;;7.77;5.97;;;;;;;;;;4976992;28;20210;-87
2024/03/14 06:26:04;;;;;;;8.00;6.20;;;;;;;;;;4976574;28;20237;-87
2024/03/14 06:29:09;;;;;;;7.00;6.20;;;;;;;;;;4999170;28;20703;-87
2024/03/14 06:32:13;;;;;;;7.17;6.07;;;;;;;;;;4978294;28;20183;-86
2024/03/14 06:35:17;;;;;;;7.00;5.97;;;;;;;;;;4976648;28;20609;-87
2024/03/14 06:38:24;;;;;;;7.67;6.60;;;;;;;;;;4977788;28;20226;-86
2024/03/14 06:41:28;;;;;;;8.50;6.37;;;;;;;;;;4976749;28;20187;-86
2024/03/14 06:44:32;;;;;;;9.40;6.63;;;;;;;;;;4976419;28;20210;-86
2024/03/14 06:47:36;;;;;;;8.90;6.30;;;;;;;;;;4977762;28;20182;-86
2024/03/14 06:50:41;;;;;;;7.67;6.27;;;;;;;;;;4965930;28;20186;-87
2024/03/14 06:53:46;;;;;;;7.17;6.43;;;;;;;;;;4977565;28;20183;-86
2024/03/14 06:56:52;;;;;;;8.27;6.67;;;;;;;;;;4999411;28;20199;-86
2024/03/14 06:59:56;;;;;;;7.43;6.07;;;;;;;;;;4977501;28;20215;-87
2024/03/14 07:03:02;;;;;;;8.20;6.23;;;;;;;;;;4976122;28;20215;-86
2024/03/14 07:06:12;;;;;;;7.10;5.47;;;;;;;;;;4976100;28;20183;-86
2024/03/14 07:09:26;;;;;;;7.90;5.87;;;;;;;;;;4977504;28;20699;-86
2024/03/14 07:12:33;;;;;;;7.80;6.20;;;;;;;;;;4976037;28;20187;-86
2024/03/14 07:15:39;;;;;;;5.83;5.20;;;;;;;;;;4987731;28;20620;-86
2024/03/14 07:18:45;;;;;;;6.30;5.53;;;;;;;;;;4975914;28;20230;-86
2024/03/14 07:21:50;;;;;;;6.33;5.50;;;;;;;;;;4976093;28;20644;-86
2024/03/14 07:24:54;;;;;;;5.80;5.20;;;;;;;;;;4977202;28;20218;-86
2024/03/14 07:27:58;;;;;;;5.67;5.07;;;;;;;;;;4964651;28;20636;-87
2024/03/14 07:31:05;;;;;;;7.33;5.50;;;;;;;;;;4987328;28;20187;-86
2024/03/14 07:34:12;;;;;;;6.13;5.20;;;;;;;;;;4985084;28;20183;-86
2024/03/14 07:37:16;;;;;;;5.87;5.00;;;;;;;;;;4975080;28;20196;-86
2024/03/14 07:40:26;;;;;;;5.77;5.10;;;;;;;;;;4974430;28;20183;-86
2024/03/14 07:43:30;;;;;;;4.80;4.30;;;;;;;;;;4974290;28;20207;-86
2024/03/14 07:46:34;;;;;;;5.33;4.67;;;;;;;;;;4974814;28;20182;-86
2024/03/14 07:49:39;;;;;;;8.83;7.90;;;;;;;;;;4974599;28;20210;-86
2024/03/14 07:52:46;;;;;;;9.50;7.70;;;;;;;;;;4974848;28;20533;-86
2024/03/14 07:55:50;;;;;;;8.77;7.13;;;;;;;;;;4985563;28;20518;-86
2024/03/14 07:58:54;;;;;;;7.23;6.53;;;;;;;;;;4996646;28;20222;-86
2024/03/14 08:01:59;;;;;;;8.37;5.97;;;;;;;;;;4985167;28;20183;-86
2024/03/14 08:05:08;;;;;;;6.77;6.00;;;;;;;;;;4984980;28;20214;-86
2024/03/14 08:08:12;;;;;;;7.23;6.50;;;;;;;;;;4973954;28;20182;-87
2024/03/14 08:11:21;;;;;;;7.07;6.37;;;;;;;;;;4974254;28;20187;-86
2024/03/14 08:14:26;;;;;;;8.27;6.10;;;;;;;;;;4977937;28;20179;-86
2024/03/14 08:17:29;;;;;;;6.60;5.90;;;;;;;;;;5000204;28;20525;-86
2024/03/14 08:20:36;;;;;;;6.40;5.40;;;;;;;;;;4979582;28;20179;-86
2024/03/14 08:23:41;;;;;;;6.10;5.50;;;;;;;;;;4979858;28;20210;-87
2024/03/14 08:26:47;;;;;;;5.73;5.07;;;;;;;;;;4979617;28;20183;-85
2024/03/14 08:29:50;;;;;;;4.90;4.37;;;;;;;;;;4979787;28;20214;-86
2024/03/14 08:32:55;;;;;;;8.80;4.83;;;;;;;;;;4980957;28;20516;-86
2024/03/14 08:35:59;;;;;;;6.80;4.67;;;;;;;;;;4990783;28;20179;-86
2024/03/14 08:39:04;;;;;;;6.87;5.20;;;;;;;;;;4980173;28;20214;-86
2024/03/14 08:42:08;;;;;;;13.00;9.23;;;;;;;;;;4980580;28;20183;-86
2024/03/14 08:45:13;;;;;;;6.40;5.03;;;;;;;;;;4980032;28;20215;-85
2024/03/14 08:48:17;;;;;;;5.57;4.67;;;;;;;;;;5002754;28;20218;-84
2024/03/14 08:51:23;;;;;;;6.80;4.50;;;;;;;;;;4980956;28;20179;-84
2024/03/14 08:57:33;;;;;;;5.23;4.27;;;;;;;;;;4980688;28;20182;-84
2024/03/14 09:00:37;;;;;;;5.23;4.73;;;;;;;;;;4980378;28;20187;-85
2024/03/14 09:03:41;;;;;;;7.77;5.20;;;;;;;;;;4979533;28;20210;-85
2024/03/14 09:06:45;;;;;;;5.80;4.00;;;;;;;;;;4990655;28;20178;-84
2024/03/14 09:09:50;;;;;;;5.87;4.10;;;;;;;;;;4979659;28;20222;-85
2024/03/14 09:12:56;;;;;;;4.87;4.20;;;;;;;;;;4979639;28;20183;-85
2024/03/14 09:16:00;;;;;;;5.03;4.33;;;;;;;;;;4978548;28;20179;-84
2024/03/14 09:19:04;;;;;;;4.97;3.80;;;;;;;;;;4979670;28;20230;-85
2024/03/14 09:22:08;;;;;;;3.87;3.57;;;;;;;;;;4978390;28;20179;-86
2024/03/14 09:25:14;;;;;;;5.00;3.97;;;;;;;;;;4978711;28;20219;-85
2024/03/14 09:28:18;;;;;;;6.50;3.50;;;;;;;;;;4999317;28;20218;-86
2024/03/14 09:31:23;;;;;;;3.60;3.20;;;;;;;;;;4977988;28;20183;-86
2024/03/14 09:34:27;;;;;;;4.27;3.60;;;;;;;;;;4987575;28;20183;-88
2024/03/14 09:37:32;;;;;;;5.73;3.47;;;;;;;;;;4987933;28;20182;-88
2024/03/14 09:40:38;;;;;;;3.87;3.47;;;;;;;;;;4977016;28;20187;-87
2024/03/14 09:43:44;;;;;;;5.07;3.60;;;;;;;;;;4976032;28;20640;-88
2024/03/14 09:46:51;;;;;;;3.43;2.93;;;;;;;;;;4976458;28;20517;-88
2024/03/14 09:49:57;;;;;;;3.53;3.23;;;;;;;;;;4976577;28;20222;-87
2024/03/14 09:53:03;;;;;;;4.20;3.40;;;;;;;;;;4975783;28;20187;-87
2024/03/14 09:56:08;;;;;;;4.17;2.90;;;;;;;;;;4987297;28;20179;-88
2024/03/14 09:59:12;;;;;;;3.43;3.13;;;;;;;;;;4998160;28;20219;-87
2024/03/14 10:02:22;;;;;;;4.63;3.60;;;;;;;;;;4976006;28;20191;-87
2024/03/14 10:05:26;;;;;;;3.47;3.13;;;;;;;;;;4976059;28;20207;-87
2024/03/14 10:08:31;;;;;;;3.63;2.97;;;;;;;;;;4987107;28;20226;-87
2024/03/14 10:11:37;;;;;;;3.17;2.90;;;;;;;;;;4976020;28;20191;-86
2024/03/14 10:14:42;;;;;;;4.87;3.20;;;;;;;;;;4998032;28;20183;-86
2024/03/14 10:17:47;;;;;;;4.00;2.43;;;;;;;;;;4964640;28;20636;-86
2024/03/14 10:20:55;;;;;;;3.77;2.60;;;;;;;;;;5047781;23;20729;-85
2024/03/14 10:23:59;;;;;;;3.83;3.40;;;;;;;;;;5013610;28;20539;-86
2024/03/14 10:27:04;;;;;;;3.53;3.10;;;;;;;;;;5003292;28;20181;-86
2024/03/14 10:30:12;;;;;;;3.37;3.07;;;;;;;;;;5026451;28;20213;-85
2024/03/14 10:33:16;;;;;;;4.20;2.70;;;;;;;;;;5015535;28;20523;-84
2024/03/14 10:36:22;;;;;;;2.83;2.47;;;;;;;;;;5024049;28;20181;-85
2024/03/14 10:39:34;;;;;;;3.87;2.53;;;;;;;;;;5022230;28;20186;-85
2024/03/14 10:42:38;;;;;;;3.13;2.60;;;;;;;;;;5012245;28;20182;-86
2024/03/14 10:45:52;;;;;;;3.00;2.50;;;;;;;;;;5013036;28;20217;-86
2024/03/14 10:49:03;;;;;;;3.67;2.73;;;;;;;;;;5013126;28;20177;-85
2024/03/14 10:52:14;;;;;;;5.47;2.73;;;;;;;;;;5024318;28;20178;-85
2024/03/14 10:55:25;;;;;;;3.33;2.50;;;;;;;;;;5012226;28;20170;-85
2024/03/14 10:58:31;;;;;;;2.87;2.60;;;;;;;;;;5010656;28;20173;-86
2024/03/14 11:01:39;;;;;;;3.90;2.57;;;;;;;;;;5000834;28;20241;-85
2024/03/14 11:04:44;;;;;;;5.53;2.60;;;;;;;;;;5022489;28;20209;-84
2024/03/14 11:07:54;;;;;;;3.13;2.27;;;;;;;;;;5033807;28;20190;-85
2024/03/14 11:11:02;;;;;;;5.10;2.27;;;;;;;;;;5029001;28;20213;-84
2024/03/14 11:14:11;;;;;;;6.40;2.70;;;;;;;;;;5017380;28;20186;-86
2024/03/14 11:17:17;;;;;;;3.73;2.43;;;;;;;;;;5015549;28;20177;-84
2024/03/14 11:20:25;;;;;;;2.77;2.30;;;;;;;;;;5026783;28;20229;-84
2024/03/14 11:23:30;;;;;;;4.47;2.50;;;;;;;;;;4993282;28;20181;-83
2024/03/14 11:26:39;;;;;;;2.77;2.47;;;;;;;;;;5015430;28;20182;-83
2024/03/14 11:29:45;;;;;;;3.73;2.87;;;;;;;;;;5015387;28;20182;-84
2024/03/14 11:32:55;;;;;;;4.30;2.50;;;;;;;;;;4994114;28;20190;-84
2024/03/14 11:35:59;;;;;;;3.03;2.43;;;;;;;;;;5004610;28;20540;-83
2024/03/14 11:39:16;;;;;;;2.90;2.60;;;;;;;;;;5015503;28;20186;-84
2024/03/14 11:42:21;;;;;;;4.10;2.63;;;;;;;;;;5005298;28;20181;-84
2024/03/14 11:45:29;;;;;;;3.57;2.27;;;;;;;;;;5016695;28;20205;-84
2024/03/14 11:48:42;;;;;;;2.87;2.57;;;;;;;;;;5015993;28;20182;-83
2024/03/14 11:51:49;;;;;;;3.23;2.23;;;;;;;;;;5016676;28;20213;-83
2024/03/14 11:54:57;;;;;;;3.23;2.17;;;;;;;;;;5016796;28;20181;-86
2024/03/14 11:58:05;;;;;;;3.90;2.40;;;;;;;;;;5015488;28;20181;-88
2024/03/14 12:01:13;;;;;;;2.77;2.17;;;;;;;;;;5032986;28;20213;-84
2024/03/14 12:04:18;;;;;;;3.67;2.23;;;;;;;;;;5019389;28;20189;-88
2024/03/14 12:07:23;;;;;;;2.90;1.60;;;;;;;;;;5013496;28;20189;-88
2024/03/14 12:10:26;;;;;;;3.90;1.70;;;;;;;;;;5014439;28;20673;-88
2024/03/14 12:13:32;;;;;;;6.07;2.00;;;;;;;;;;5013746;28;20181;-88
2024/03/14 12:16:42;;;;;;;1.80;1.60;;;;;;;;;;5015006;28;20511;-88
2024/03/14 12:19:47;;;;;;;2.50;1.90;;;;;;;;;;5015902;28;20182;-88
2024/03/14 12:22:52;;;;;;;4.23;1.67;;;;;;;;;;5014692;28;20181;-88
2024/03/14 12:26:07;;;;;;;2.50;1.67;;;;;;;;;;5025630;28;20209;-88
2024/03/14 12:29:11;;;;;;;2.93;2.30;;;;;;;;;;5025716;28;20178;-88
2024/03/14 12:32:16;;;;;;;3.53;2.00;;;;;;;;;;5014545;28;20191;-88
2024/03/14 12:35:22;;;;;;;3.77;1.83;;;;;;;;;;5015071;28;20174;-88
2024/03/14 12:38:28;;;;;;;4.87;1.97;;;;;;;;;;5025406;28;20184;-87
2024/03/14 12:41:33;;;;;;;3.30;1.93;;;;;;;;;;5014478;28;20225;-87
2024/03/14 12:44:38;;;;;;;4.17;1.90;;;;;;;;;;5015114;28;20184;-87
2024/03/14 12:47:44;;;;;;;4.57;2.30;;;;;;;;;;5025819;28;20187;-86
2024/03/14 12:50:49;;;;;;;3.60;2.10;;;;;;;;;;5014938;28;20222;-86
2024/03/14 12:53:55;;;;;;;2.30;1.67;;;;;;;;;;5015066;28;20187;-87
2024/03/14 12:56:59;;;;;;;2.97;2.30;;;;;;;;;;5015722;28;20179;-86
2024/03/14 13:00:03;;;;;;;4.23;2.40;;;;;;;;;;5030103;28;20222;-85
2024/03/14 13:03:22;;;;;;;2.73;2.30;;;;;;;;;;5022159;28;20630;-85
2024/03/14 13:07:01;;;;;;;3.77;2.47;;;;;;;;;;5021096;28;20203;-85
2024/03/14 13:10:15;;;;;;;3.37;2.27;;;;;;;;;;5020823;28;20209;-85
2024/03/14 13:14:15;;;;;;;3.50;2.40;;;;;;;;;;5013789;28;20186;-86
2024/03/14 13:17:20;;;;;;;4.80;2.60;;;;;;;;;;5029782;28;20174;-88
2024/03/14 13:20:27;;;;;;;4.67;2.50;;;;;;;;;;5005080;28;20235;-88
2024/03/14 13:23:31;;;;;;;3.57;2.50;;;;;;;;;;5017140;28;20631;-88
2024/03/14 13:26:35;;;;;;;4.50;2.43;;;;;;;;;;5016481;28;20213;-88
2024/03/14 13:29:40;;;;;;;3.83;2.23;;;;;;;;;;5004803;28;20177;-87
2024/03/14 13:32:44;;;;;;;3.20;2.13;;;;;;;;;;5027908;28;20178;-88
2024/03/14 13:35:49;;;;;;;2.57;2.00;;;;;;;;;;5027754;28;20178;-88
2024/03/14 13:38:56;;;;;;;2.30;1.80;;;;;;;;;;5004953;28;20182;-88
2024/03/14 13:42:00;;;;;;;2.30;2.10;;;;;;;;;;4993563;28;20181;-88
2024/03/14 13:45:06;;;;;;;1.90;1.60;;;;;;;;;;5016278;28;20209;-88
2024/03/14 13:48:10;;;;;;;2.60;1.83;;;;;;;;;;5016720;28;20626;-88
2024/03/14 13:51:17;;;;;;;2.73;1.93;;;;;;;;;;5015791;28;20216;-88
2024/03/14 13:54:23;;;;;;;6.13;2.30;;;;;;;;;;5015710;28;20181;-88
2024/03/14 13:57:30;;;;;;;3.33;1.83;;;;;;;;;;5016102;28;20177;-88
2024/03/14 14:00:50;;;;;;;2.17;1.83;;;;;;;;;;5004074;28;20213;-88
2024/03/14 14:03:56;;;;;;;3.57;2.10;;;;;;;;;;5015407;28;20182;-88
2024/03/14 14:07:00;;;;;;;3.30;2.30;;;;;;;;;;5021096;28;20213;-85
2024/03/14 14:10:05;;;;;;;3.33;2.63;;;;;;;;;;5020499;28;20693;-85
2024/03/14 14:13:10;;;;;;;3.07;2.50;;;;;;;;;;5020198;28;20185;-85
2024/03/14 14:16:18;;;;;;;4.43;2.40;;;;;;;;;;5020090;28;20173;-85
2024/03/14 14:19:22;;;;;;;4.77;2.33;;;;;;;;;;5031697;28;20182;-85
2024/03/14 14:22:28;;;;;;;3.03;2.27;;;;;;;;;;5021683;28;20178;-85
2024/03/14 14:25:33;;;;;;;2.43;2.20;;;;;;;;;;5020913;28;20209;-85
2024/03/14 14:28:41;;;;;;;3.90;2.67;;;;;;;;;;5008135;28;20185;-85
2024/03/14 14:31:45;;;;;;;3.20;2.57;;;;;;;;;;5008977;28;20224;-85
2024/03/14 14:34:49;;;;;;;3.80;2.37;;;;;;;;;;5021668;28;20173;-84
2024/03/14 14:37:53;;;;;;;5.60;2.40;;;;;;;;;;5020576;28;20174;-85
2024/03/14 14:40:57;;;;;;;4.50;2.40;;;;;;;;;;5020190;28;20217;-85
2024/03/14 14:44:02;;;;;;;4.13;2.50;;;;;;;;;;5007810;28;20181;-85
2024/03/14 14:47:10;;;;;;;2.37;2.17;;;;;;;;;;5007710;28;20209;-86
2024/03/14 14:50:14;;;;;;;2.87;2.30;;;;;;;;;;5020068;28;20221;-85
2024/03/14 14:53:21;;;;;;;3.73;2.40;;;;;;;;;;5020008;28;20185;-85
2024/03/14 14:56:25;;;;;;;3.13;2.60;;;;;;;;;;5019971;28;20174;-85
2024/03/14 14:59:29;;;;;;;5.90;2.47;;;;;;;;;;5019538;28;20189;-85
2024/03/14 15:02:34;;;;;;;3.80;2.67;;;;;;;;;;5018916;28;20181;-85
2024/03/14 15:05:39;;;;;;;2.63;2.43;;;;;;;;;;5031423;28;20216;-85
2024/03/14 15:08:44;;;;;;;3.37;2.77;;;;;;;;;;5020029;28;20185;-85
2024/03/14 15:11:49;;;;;;;4.20;2.57;;;;;;;;;;5019402;28;20225;-85
2024/03/14 15:14:54;;;;;;;2.93;2.63;;;;;;;;;;5020500;28;20182;-85
2024/03/14 15:17:59;;;;;;;3.77;2.40;;;;;;;;;;5019969;28;20173;-85
2024/03/14 15:21:03;;;;;;;3.23;2.50;;;;;;;;;;5019809;28;20225;-85
2024/03/14 15:24:11;;;;;;;2.53;2.27;;;;;;;;;;5028177;28;20181;-84
2024/03/14 15:27:17;;;;;;;5.17;2.60;;;;;;;;;;5027607;28;20213;-84
2024/03/14 15:30:22;;;;;;;3.10;2.37;;;;;;;;;;5016375;28;20216;-84
2024/03/14 15:33:26;;;;;;;3.37;2.37;;;;;;;;;;5028286;28;20190;-85
2024/03/14 15:36:31;;;;;;;2.40;2.20;;;;;;;;;;5016948;28;20177;-85
2024/03/14 15:39:36;;;;;;;2.83;2.47;;;;;;;;;;5016092;28;20189;-84
2024/03/14 15:42:40;;;;;;;2.73;2.47;;;;;;;;;;5017410;28;20178;-85
2024/03/14 15:45:44;;;;;;;3.13;2.27;;;;;;;;;;5018076;28;20209;-85
2024/03/14 15:48:49;;;;;;;4.17;2.70;;;;;;;;;;4994780;28;20185;-85
2024/03/14 15:51:54;;;;;;;3.47;2.67;;;;;;;;;;5019099;28;20217;-85
2024/03/14 15:54:58;;;;;;;6.40;2.43;;;;;;;;;;5019377;28;20182;-85
2024/03/14 15:58:02;;;;;;;2.80;2.53;;;;;;;;;;5018964;28;20177;-84
2024/03/14 16:01:07;;;;;;;2.90;2.27;;;;;;;;;;5017790;28;20562;-85
2024/03/14 16:04:12;;;;;;;2.97;2.43;;;;;;;;;;5019179;28;20185;-85
2024/03/14 16:07:16;;;;;;;3.20;2.47;;;;;;;;;;5019460;28;20205;-86
2024/03/14 16:10:21;;;;;;;3.27;2.90;;;;;;;;;;5008051;28;20217;-85
2024/03/14 16:13:25;;;;;;;3.47;2.90;;;;;;;;;;5030693;28;20173;-85
2024/03/14 16:16:34;;;;;;;2.87;2.20;;;;;;;;;;5008166;28;20182;-85
2024/03/14 16:19:38;;;;;;;3.07;2.60;;;;;;;;;;4998115;28;20182;-85
2024/03/14 16:22:45;;;;;;;2.90;2.20;;;;;;;;;;5074546;23;20228;-86
2024/03/14 16:25:49;;;;;;;3.07;2.17;;;;;;;;;;5021913;28;20205;-85
2024/03/14 16:28:54;;;;;;;2.60;2.20;;;;;;;;;;5022030;28;20177;-86
2024/03/14 16:31:58;;;;;;;3.23;2.50;;;;;;;;;;5003682;28;20217;-85
2024/03/14 16:35:06;;;;;;;3.10;2.80;;;;;;;;;;5005858;28;20181;-85
2024/03/14 16:38:10;;;;;;;6.00;2.60;;;;;;;;;;5017326;28;20523;-85
2024/03/14 16:41:18;;;;;;;2.70;2.50;;;;;;;;;;5017580;28;20654;-85
2024/03/14 16:44:22;;;;;;;2.93;2.33;;;;;;;;;;5005477;28;20523;-85
2024/03/14 16:47:27;;;;;;;2.67;2.43;;;;;;;;;;5030380;28;20213;-84
2024/03/14 16:50:33;;;;;;;3.20;2.63;;;;;;;;;;5017537;28;20185;-84
2024/03/14 16:53:38;;;;;;;2.77;2.47;;;;;;;;;;5017281;28;20182;-84
2024/03/14 16:56:42;;;;;;;3.03;2.53;;;;;;;;;;5028169;28;20174;-84
2024/03/14 16:59:46;;;;;;;3.63;2.40;;;;;;;;;;5032804;28;20186;-85
2024/03/14 17:02:50;;;;;;;2.60;2.10;;;;;;;;;;5020316;28;20217;-84
2024/03/14 17:05:56;;;;;;;1.97;1.77;;;;;;;;;;5020661;28;20190;-84
2024/03/14 17:09:07;;;;;;;2.53;2.33;;;;;;;;;;5018981;28;20186;-84
2024/03/14 17:12:11;;;;;;;1.80;1.70;;;;;;;;;;5008798;28;20217;-85
2024/03/14 17:15:21;;;;;;;2.20;1.80;;;;;;;;;;5020194;28;20181;-84
2024/03/14 17:18:26;;;;;;;2.30;1.70;;;;;;;;;;5031037;28;20170;-84
2024/03/14 17:21:30;;;;;;;2.40;1.83;;;;;;;;;;5019549;28;20221;-84
2024/03/14 17:24:36;;;;;;;1.83;1.63;;;;;;;;;;5018365;28;20186;-84
2024/03/14 17:27:42;;;;;;;2.70;1.80;;;;;;;;;;5018726;28;20206;-85
2024/03/14 17:30:51;;;;;;;4.33;2.00;;;;;;;;;;5016905;28;20181;-86
2024/03/14 17:33:56;;;;;;;2.23;1.70;;;;;;;;;;5026473;28;20181;-86
2024/03/14 17:37:00;;;;;;;2.77;1.77;;;;;;;;;;5025832;28;20173;-85
2024/03/14 17:40:11;;;;;;;2.97;1.83;;;;;;;;;;5015179;28;20190;-85
2024/03/14 17:43:15;;;;;;;3.93;2.00;;;;;;;;;;5014466;28;20178;-86
2024/03/14 17:46:19;;;;;;;3.87;1.90;;;;;;;;;;5014544;28;20543;-86
2024/03/14 17:49:24;;;;;;;2.50;2.00;;;;;;;;;;5014418;28;20185;-85
2024/03/14 17:52:28;;;;;;;4.77;2.17;;;;;;;;;;5026203;28;20225;-85
2024/03/14 17:55:32;;;;;;;3.17;2.37;;;;;;;;;;5014818;28;20181;-85
2024/03/14 17:58:36;;;;;;;3.83;2.47;;;;;;;;;;5015714;28;20185;-85
2024/03/14 18:01:41;;;;;;;2.43;2.07;;;;;;;;;;5004005;28;20217;-85
2024/03/14 18:04:45;;;;;;;2.73;2.27;;;;;;;;;;5015382;28;20185;-85
2024/03/14 18:07:49;;;;;;;2.53;2.30;;;;;;;;;;5015842;28;20213;-85
2024/03/14 18:10:53;;;;;;;2.80;2.10;;;;;;;;;;5004128;28;20626;-85
2024/03/14 18:13:58;;;;;;;2.93;2.27;;;;;;;;;;5003702;28;20177;-85
2024/03/14 18:17:02;;;;;;;3.40;2.30;;;;;;;;;;5015881;28;20181;-85
2024/03/14 18:20:10;;;;;;;3.50;2.50;;;;;;;;;;5015307;28;20181;-85
2024/03/14 18:23:21;;;;;;;3.83;2.20;;;;;;;;;;5129382;27;21123;-86
2024/03/14 18:26:26;;;;;;;7.07;2.53;;;;;;;;;;5112134;28;20189;-86
2024/03/14 18:29:31;;;;;;;2.60;2.23;;;;;;;;;;5100223;28;20178;-86
2024/03/14 18:32:34;;;;;;;2.87;2.20;;;;;;;;;;5112590;28;20214;-86